Time;durP1;ratioP1;P1;durP2;ratioP2;P2;SDS_P1;SDS_P2;PMS_P1;PMS_P2;Temp;Humidity;BMP_temperature;BMP_pressure;BME280_temperature;BME280_humidity;BME280_pressure;Samples;Min_cycle;Max_cycle;Signal;HPM_P1;HPM_P2
2023/06/18 00:01:17;;;;;;;19.35;10.15;;;;;;;18.00;100.00;100910.72;4949141;28;20625;-71
2023/06/18 00:03:44;;;;;;;19.92;10.65;;;;;;;17.94;100.00;100916.16;4949839;28;20051;-75
2023/06/18 00:06:11;;;;;;;20.23;9.90;;;;;;;17.89;100.00;100913.16;4950590;28;20074;-72
2023/06/18 00:08:37;;;;;;;18.58;10.32;;;;;;;17.85;100.00;100918.13;4952272;28;20055;-73
2023/06/18 00:11:04;;;;;;;19.63;10.30;;;;;;;17.77;100.00;100916.84;4944168;29;20151;-74
2023/06/18 00:13:31;;;;;;;19.60;10.35;;;;;;;17.70;100.00;100919.94;4962759;28;20052;-72
2023/06/18 00:15:57;;;;;;;18.55;10.05;;;;;;;17.67;100.00;100916.03;4951575;28;20055;-73
2023/06/18 00:18:24;;;;;;;18.92;10.52;;;;;;;17.67;100.00;100912.41;4950716;28;20833;-73
2023/06/18 00:20:50;;;;;;;17.42;9.80;;;;;;;17.67;100.00;100912.41;4949488;28;20130;-74
2023/06/18 00:23:17;;;;;;;19.73;11.02;;;;;;;17.57;100.00;100908.78;4949512;28;20079;-73
2023/06/18 00:25:43;;;;;;;20.33;10.50;;;;;;;17.55;100.00;100911.25;4950823;28;20129;-72
2023/06/18 00:28:10;;;;;;;17.95;10.50;;;;;;;17.48;100.00;100905.16;4951070;29;20576;-73
2023/06/18 00:30:37;;;;;;;21.70;10.85;;;;;;;17.45;100.00;100903.25;4950649;28;20051;-73
2023/06/18 00:33:03;;;;;;;17.75;10.10;;;;;;;17.38;100.00;100907.91;4951084;28;20051;-72
2023/06/18 00:35:31;;;;;;;19.85;10.73;;;;;;;17.34;100.00;100909.28;4951829;28;20066;-72
2023/06/18 00:37:59;;;;;;;18.65;10.80;;;;;;;17.31;100.00;100910.97;4951490;28;20561;-72
2023/06/18 00:40:25;;;;;;;18.35;10.38;;;;;;;17.29;100.00;100910.66;4951692;28;20051;-73
2023/06/18 00:42:52;;;;;;;18.85;10.90;;;;;;;17.24;100.00;100911.25;4951001;28;20047;-72
2023/06/18 00:45:20;;;;;;;21.02;11.25;;;;;;;17.19;100.00;100909.03;4947048;28;20853;-71
2023/06/18 00:47:48;;;;;;;20.33;11.23;;;;;;;17.10;100.00;100902.53;4951905;28;20406;-69
2023/06/18 00:50:18;;;;;;;17.67;10.23;;;;;;;17.09;100.00;100909.41;4951786;28;20052;-73
2023/06/18 00:52:47;;;;;;;18.98;10.30;;;;;;;17.01;100.00;100897.63;4955915;28;20105;-72
2023/06/18 00:55:17;;;;;;;20.17;11.30;;;;;;;17.01;100.00;100899.66;4948513;28;20055;-72
2023/06/18 00:57:49;;;;;;;21.25;10.98;;;;;;;16.97;100.00;100899.78;4945669;28;20161;-73
2023/06/18 01:00:19;;;;;;;19.27;10.20;;;;;;;16.93;100.00;100904.75;4951400;28;20047;-72
2023/06/18 01:02:49;;;;;;;19.58;10.38;;;;;;;16.90;100.00;100899.25;4947009;28;20051;-73
2023/06/18 01:05:17;;;;;;;18.55;10.60;;;;;;;16.84;100.00;100899.06;4946079;28;20043;-73
2023/06/18 01:07:47;;;;;;;20.23;10.15;;;;;;;16.77;100.00;100902.13;4949910;28;20051;-74
2023/06/18 01:10:16;;;;;;;19.67;10.25;;;;;;;16.75;100.00;100903.84;4950559;28;20165;-72
2023/06/18 01:12:46;;;;;;;19.08;10.38;;;;;;;16.68;100.00;100899.25;4950537;28;20055;-71
2023/06/18 01:15:12;;;;;;;18.30;11.00;;;;;;;16.63;100.00;100901.84;4950203;28;20188;-72
2023/06/18 01:17:40;;;;;;;18.35;10.15;;;;;;;16.57;100.00;100893.22;4950843;28;20425;-73
2023/06/18 01:20:11;;;;;;;20.83;10.45;;;;;;;16.60;100.00;100888.72;4950348;28;20497;-70
2023/06/18 01:22:40;;;;;;;20.85;11.40;;;;;;;16.60;100.00;100891.53;4950538;28;20134;-72
2023/06/18 01:25:08;;;;;;;18.98;11.07;;;;;;;16.56;100.00;100891.66;4947059;28;20079;-73
2023/06/18 01:27:40;;;;;;;20.40;11.25;;;;;;;16.51;100.00;100892.22;4949302;28;20516;-72
2023/06/18 01:30:09;;;;;;;18.55;10.73;;;;;;;16.43;100.00;100876.88;4948501;28;20141;-72
2023/06/18 01:32:38;;;;;;;18.42;11.05;;;;;;;16.41;100.00;100890.56;4949100;28;20087;-73
2023/06/18 01:35:06;;;;;;;19.58;11.15;;;;;;;16.40;100.00;100882.59;4947469;28;20063;-74
2023/06/18 01:38:01;;;;;;;19.30;10.77;;;;;;;16.33;100.00;100883.66;4956344;28;20104;-73
2023/06/18 01:40:46;;;;;;;19.52;10.77;;;;;;;16.31;100.00;100880.50;4951070;28;20076;-71
2023/06/18 01:43:36;;;;;;;19.42;11.85;;;;;;;16.32;100.00;100879.28;4950090;28;20162;-74
2023/06/18 01:46:04;;;;;;;21.08;11.02;;;;;;;16.33;100.00;100878.03;4950264;28;20070;-72
2023/06/18 01:48:53;;;;;;;18.73;11.38;;;;;;;16.29;100.00;100877.38;4951205;28;20063;-72
2023/06/18 01:51:21;;;;;;;19.08;11.30;;;;;;;16.27;100.00;100877.03;4950226;28;20058;-73
2023/06/18 01:53:50;;;;;;;21.15;10.93;;;;;;;16.18;100.00;100865.72;4950546;28;20126;-72
2023/06/18 01:56:17;;;;;;;20.88;11.35;;;;;;;16.22;100.00;100876.78;4948938;28;20078;-72
2023/06/18 01:58:44;;;;;;;20.42;11.63;;;;;;;16.20;100.00;100876.47;4950920;28;20047;-72
2023/06/18 02:01:11;;;;;;;20.35;11.40;;;;;;;16.19;100.00;100883.31;4948755;28;20422;-70
2023/06/18 02:03:39;;;;;;;19.95;11.90;;;;;;;16.15;100.00;100883.44;4949859;28;20047;-73
2023/06/18 02:06:07;;;;;;;20.63;11.60;;;;;;;16.17;100.00;100885.78;4948656;28;20146;-69
2023/06/18 02:08:33;;;;;;;20.30;11.02;;;;;;;16.13;100.00;100879.53;4951026;28;20089;-75
2023/06/18 02:11:02;;;;;;;20.80;12.15;;;;;;;16.06;100.00;100871.31;4950169;28;20672;-73
2023/06/18 02:13:28;;;;;;;20.70;10.75;;;;;;;16.02;100.00;100870.66;4949407;28;20051;-73
2023/06/18 02:15:55;;;;;;;18.95;10.50;;;;;;;16.01;100.00;100871.91;4949650;28;20055;-72
2023/06/18 02:18:21;;;;;;;21.10;11.93;;;;;;;16.05;100.00;100873.38;4949937;28;20137;-71
2023/06/18 02:20:48;;;;;;;21.70;11.95;;;;;;;16.12;100.00;100872.31;4950423;28;20134;-73
2023/06/18 02:23:15;;;;;;;20.70;11.95;;;;;;;16.06;100.00;100874.13;4949725;28;20074;-72
2023/06/18 02:25:44;;;;;;;19.88;11.45;;;;;;;16.02;100.00;100867.84;4948688;28;20058;-70
2023/06/18 02:28:11;;;;;;;20.23;11.43;;;;;;;16.02;100.00;100863.03;4946570;29;20098;-73
2023/06/18 02:30:38;;;;;;;19.02;12.20;;;;;;;15.96;100.00;100869.66;4948016;28;20853;-74
2023/06/18 02:33:06;;;;;;;19.80;11.52;;;;;;;15.98;100.00;100876.41;4949477;28;20083;-74
2023/06/18 02:35:33;;;;;;;18.80;11.23;;;;;;;16.02;100.00;100871.47;4950058;28;20402;-73
2023/06/18 02:37:59;;;;;;;19.35;11.77;;;;;;;16.04;100.00;100874.56;4948927;28;20047;-74
2023/06/18 02:40:26;;;;;;;21.45;12.23;;;;;;;16.02;100.00;100862.25;4950244;29;20122;-74
2023/06/18 02:42:53;;;;;;;20.83;12.23;;;;;;;16.04;100.00;100871.00;4949084;28;20173;-71
2023/06/18 02:45:21;;;;;;;21.65;11.75;;;;;;;16.03;100.00;100866.66;4948236;28;20082;-73
2023/06/18 02:47:49;;;;;;;21.35;12.55;;;;;;;16.01;100.00;100861.47;4949021;29;20115;-72
2023/06/18 02:50:17;;;;;;;19.40;11.70;;;;;;;15.99;100.00;100865.94;4949591;28;20137;-72
2023/06/18 02:52:45;;;;;;;19.83;11.63;;;;;;;15.97;100.00;100860.78;4949679;28;20066;-72
2023/06/18 02:55:12;;;;;;;20.75;12.30;;;;;;;15.95;100.00;100854.88;4954703;28;20047;-73
2023/06/18 02:57:40;;;;;;;21.17;12.60;;;;;;;15.98;100.00;100856.78;4944203;28;20755;-74
2023/06/18 03:00:10;;;;;;;20.15;11.68;;;;;;;15.96;100.00;100862.03;4952280;28;20126;-73
2023/06/18 03:02:41;;;;;;;24.52;12.60;;;;;;;15.97;100.00;100849.56;4948523;28;20110;-73
2023/06/18 03:05:09;;;;;;;22.35;13.18;;;;;;;15.98;100.00;100847.56;4949371;28;20510;-73
2023/06/18 03:07:35;;;;;;;22.55;12.05;;;;;;;15.96;100.00;100847.22;4949315;28;20082;-74
2023/06/18 03:10:03;;;;;;;24.70;13.50;;;;;;;15.92;100.00;100843.75;4949663;28;20059;-69
2023/06/18 03:12:29;;;;;;;20.88;12.20;;;;;;;15.94;100.00;100847.69;4948750;28;20177;-73
2023/06/18 03:14:56;;;;;;;22.60;12.57;;;;;;;16.00;100.00;100851.47;4948165;28;20047;-73
2023/06/18 03:17:23;;;;;;;22.73;13.43;;;;;;;16.01;100.00;100853.06;4949352;28;20059;-72
2023/06/18 03:19:49;;;;;;;22.80;12.70;;;;;;;16.00;100.00;100856.31;4949931;28;20051;-74
2023/06/18 03:22:16;;;;;;;21.55;12.68;;;;;;;16.03;100.00;100855.44;4948314;28;20083;-74
2023/06/18 03:24:42;;;;;;;22.75;13.23;;;;;;;16.01;100.00;100855.88;4949456;28;20434;-73
2023/06/18 03:27:09;;;;;;;21.75;13.38;;;;;;;15.98;100.00;100859.59;4943987;28;20760;-74
2023/06/18 03:29:36;;;;;;;23.85;13.35;;;;;;;16.02;100.00;100857.44;4948529;28;20055;-73
2023/06/18 03:32:03;;;;;;;23.27;13.70;;;;;;;15.97;100.00;100858.00;4944024;29;20043;-73
2023/06/18 03:34:33;;;;;;;22.92;12.75;;;;;;;15.94;100.00;100855.31;4946682;28;20552;-74
2023/06/18 03:37:03;;;;;;;22.45;12.90;;;;;;;15.94;100.00;100861.72;4946291;28;20058;-73
2023/06/18 03:39:29;;;;;;;23.13;12.65;;;;;;;15.95;100.00;100862.50;4947087;29;20106;-73
2023/06/18 03:41:56;;;;;;;21.55;12.48;;;;;;;15.91;100.00;100847.81;4948739;28;20521;-73
2023/06/18 03:44:23;;;;;;;24.92;13.73;;;;;;;15.91;100.00;100859.03;4947871;28;20506;-71
2023/06/18 03:46:50;;;;;;;21.05;12.98;;;;;;;15.91;100.00;100859.03;4949085;28;20134;-74
2023/06/18 03:49:17;;;;;;;22.50;14.07;;;;;;;15.90;100.00;100858.22;4948741;28;20880;-71
2023/06/18 03:51:43;;;;;;;22.92;13.88;;;;;;;15.92;100.00;100860.59;4949456;28;20050;-70
2023/06/18 03:54:10;;;;;;;23.23;13.30;;;;;;;15.93;100.00;100859.38;4948509;28;20146;-73
2023/06/18 03:56:37;;;;;;;25.20;14.05;;;;;;;15.94;100.00;100861.72;4947252;29;20098;-72
2023/06/18 03:59:04;;;;;;;24.38;15.20;;;;;;;15.97;100.00;100863.59;4948971;28;20506;-75
2023/06/18 04:01:30;;;;;;;22.73;12.75;;;;;;;15.98;100.00;100864.38;4947543;28;20070;-73
2023/06/18 04:03:57;;;;;;;21.92;14.13;;;;;;;15.91;100.00;100859.03;4946395;28;20122;-71
2023/06/18 04:06:24;;;;;;;22.25;14.68;;;;;;;15.87;100.00;100875.94;4947482;28;20098;-72
2023/06/18 04:08:50;;;;;;;24.88;13.98;;;;;;;15.77;100.00;100867.91;4948732;28;20078;-72
2023/06/18 04:11:19;;;;;;;26.98;14.98;;;;;;;15.76;100.00;100872.72;4948851;28;20478;-74
2023/06/18 04:13:46;;;;;;;22.27;12.68;;;;;;;15.86;100.00;100877.19;4942246;29;20133;-73
2023/06/18 04:16:13;;;;;;;20.73;13.73;;;;;;;16.00;100.00;100876.72;4947044;29;20766;-73
2023/06/18 04:18:42;;;;;;;23.48;13.80;;;;;;;16.09;100.00;100874.03;4949199;28;20609;-72
2023/06/18 04:21:08;;;;;;;25.67;14.13;;;;;;;16.15;100.00;100871.44;4948402;28;20113;-73
2023/06/18 04:23:35;;;;;;;28.27;14.05;;;;;;;16.22;100.00;100868.38;4947994;28;20117;-74
2023/06/18 04:26:04;;;;;;;22.38;14.20;;;;;;;16.29;100.00;100876.59;4945007;28;20138;-71
2023/06/18 04:28:31;;;;;;;22.73;13.70;;;;;;;16.33;100.00;100878.03;4961973;28;20059;-70
2023/06/18 04:30:57;;;;;;;22.75;14.23;;;;;;;16.37;100.00;100880.72;4951879;28;20044;-72
2023/06/18 04:33:24;;;;;;;24.90;14.23;;;;;;;16.38;100.00;100877.47;4949320;28;20059;-70
2023/06/18 04:35:51;;;;;;;25.75;13.85;;;;;;;16.41;100.00;100878.59;4951728;28;20506;-72
2023/06/18 04:38:17;;;;;;;23.23;13.75;;;;;;;16.42;100.00;100880.94;4952009;28;20138;-72
2023/06/18 04:40:44;;;;;;;24.00;14.55;;;;;;;16.45;100.00;100882.84;4952018;28;20142;-72
2023/06/18 04:43:10;;;;;;;24.30;13.48;;;;;;;16.50;100.00;100881.44;4982069;28;20502;-71
2023/06/18 04:45:37;;;;;;;24.10;13.38;;;;;;;16.56;100.00;100888.84;4946963;28;20085;-71
2023/06/18 04:48:04;;;;;;;23.63;14.10;;;;;;;16.59;100.00;100885.16;4951717;28;20047;-73
2023/06/18 04:50:31;;;;;;;26.02;13.95;;;;;;;16.63;100.00;100885.81;4950923;29;20051;-71
2023/06/18 04:52:58;;;;;;;23.75;13.93;;;;;;;16.69;100.00;100889.59;4951538;28;20039;-75
2023/06/18 04:55:24;;;;;;;23.25;14.25;;;;;;;16.74;100.00;100885.41;4950821;28;20141;-76
2023/06/18 04:57:51;;;;;;;23.52;14.27;;;;;;;16.81;100.00;100885.16;4951552;28;20051;-73
2023/06/18 05:00:19;;;;;;;24.60;15.23;;;;;;;16.89;100.00;100883.66;4962659;28;20533;-74
2023/06/18 05:02:47;;;;;;;26.95;14.60;;;;;;;16.96;100.00;100892.63;4972912;28;20135;-73
2023/06/18 05:05:15;;;;;;;25.38;14.57;;;;;;;17.04;100.00;100888.31;4946785;29;20859;-74
2023/06/18 05:07:42;;;;;;;27.75;15.77;;;;;;;17.15;100.00;100891.50;4951425;28;20943;-73
2023/06/18 05:10:09;;;;;;;24.50;14.40;;;;;;;17.25;100.00;100892.38;4951756;28;20050;-73
2023/06/18 05:12:37;;;;;;;25.55;14.70;;;;;;;17.34;100.00;100889.59;4951519;28;20055;-75
2023/06/18 05:15:05;;;;;;;25.55;15.38;;;;;;;17.41;100.00;100885.75;4949212;28;20983;-74
2023/06/18 05:17:33;;;;;;;24.08;15.00;;;;;;;17.50;100.00;100888.59;4951783;28;20502;-73
2023/06/18 05:20:01;;;;;;;26.52;16.13;;;;;;;17.62;100.00;100888.50;4949442;28;20573;-73
2023/06/18 05:22:27;;;;;;;26.65;14.00;;;;;;;17.73;100.00;100885.28;4951594;28;20086;-71
2023/06/18 05:24:55;;;;;;;22.40;14.10;;;;;;;17.84;100.00;100883.59;4950504;29;20134;-72
2023/06/18 05:27:21;;;;;;;23.38;13.55;;;;;;;17.95;100.00;100888.84;4945781;28;20074;-72
2023/06/18 05:29:48;;;;;;;24.45;13.48;;;;;;;18.06;100.00;100891.97;4945398;28;20212;-73
2023/06/18 05:32:14;;;;;;;24.67;13.02;;;;;;;18.17;100.00;100892.31;4948653;28;20552;-75
2023/06/18 05:34:41;;;;;;;23.98;14.18;;;;;;;18.28;100.00;100890.63;4950507;28;20184;-73
2023/06/18 05:37:07;;;;;;;23.98;13.73;;;;;;;18.38;100.00;100897.84;4956228;28;20082;-72
2023/06/18 05:39:35;;;;;;;21.75;12.60;;;;;;;18.50;100.00;100896.91;4950398;28;20051;-74
2023/06/18 05:42:01;;;;;;;21.17;11.48;;;;;;;18.54;100.00;100896.75;4950146;28;20082;-74
2023/06/18 05:44:28;;;;;;;21.48;13.13;;;;;;;18.70;100.00;100904.91;4949302;28;20051;-75
2023/06/18 05:46:54;;;;;;;23.08;12.38;;;;;;;18.80;100.00;100903.69;4950459;28;20094;-75
2023/06/18 05:49:21;;;;;;;20.13;12.40;;;;;;;18.89;100.00;100912.13;4950188;28;20063;-75
2023/06/18 05:51:51;;;;;;;21.52;12.32;;;;;;;18.98;100.00;100910.09;4949875;28;20051;-74
2023/06/18 05:54:17;;;;;;;19.15;11.90;;;;;;;19.04;100.00;100911.00;4950740;28;20090;-74
2023/06/18 05:56:44;;;;;;;22.20;12.38;;;;;;;19.14;100.00;100918.22;4942800;28;20749;-73
2023/06/18 05:59:10;;;;;;;26.77;14.18;;;;;;;19.24;100.00;100910.53;4945727;29;20513;-72
2023/06/18 06:01:37;;;;;;;21.48;12.23;;;;;;;19.31;100.00;100910.22;4950637;28;20109;-73
2023/06/18 06:04:04;;;;;;;22.90;12.32;;;;;;;19.41;100.00;100915.34;4950538;28;20047;-72
2023/06/18 06:06:34;;;;;;;23.67;12.98;;;;;;;19.50;100.00;100918.19;4950070;28;20047;-71
2023/06/18 06:09:00;;;;;;;22.60;12.10;;;;;;;19.54;100.00;100918.00;4947337;29;20050;-71
2023/06/18 06:11:27;;;;;;;20.10;12.02;;;;;;;19.59;100.00;100911.72;4950839;28;20082;-73
2023/06/18 06:13:53;;;;;;;20.00;11.15;;;;;;;19.65;100.00;100910.59;4950208;28;20134;-75
2023/06/18 06:16:20;;;;;;;20.73;11.32;;;;;;;19.68;100.00;100914.53;4950423;28;20055;-75
2023/06/18 06:18:46;;;;;;;22.70;12.35;;;;;;;19.77;100.00;100915.25;4949901;28;20043;-74
2023/06/18 06:21:13;;;;;;;20.85;12.40;;;;;;;19.82;100.00;100916.66;4949696;28;20480;-75
2023/06/18 06:23:40;;;;;;;19.02;11.50;;;;;;;19.90;100.00;100912.22;4950462;28;20079;-75
2023/06/18 06:26:06;;;;;;;19.90;11.10;;;;;;;19.99;100.00;100905.75;4948161;28;20082;-75
2023/06/18 06:28:33;;;;;;;19.15;11.00;;;;;;;20.07;100.00;100907.75;4950093;28;20156;-74
2023/06/18 06:30:59;;;;;;;17.90;10.30;;;;;;;20.16;100.00;100909.75;4950257;28;20079;-73
2023/06/18 06:33:26;;;;;;;19.48;10.95;;;;;;;20.22;100.00;100913.47;4949770;28;20110;-76
2023/06/18 06:35:53;;;;;;;19.10;10.57;;;;;;;20.25;100.00;100916.16;4943736;28;20138;-75
2023/06/18 06:38:19;;;;;;;20.52;10.70;;;;;;;20.30;100.00;100918.31;4949437;28;20186;-76
2023/06/18 06:40:48;;;;;;;19.85;10.98;;;;;;;20.41;100.00;100917.78;4948930;28;20142;-73
2023/06/18 06:43:15;;;;;;;17.50;10.57;;;;;;;20.51;100.00;100910.81;4950272;28;20047;-77
2023/06/18 06:45:41;;;;;;;20.05;10.48;;;;;;;20.61;100.00;100912.31;4949041;28;20055;-75
2023/06/18 06:48:09;;;;;;;24.25;11.73;;;;;;;20.71;100.00;100908.94;4947949;28;20058;-75
2023/06/18 06:50:36;;;;;;;19.48;11.05;;;;;;;20.79;100.00;100915.75;4943289;28;20177;-72
2023/06/18 06:53:03;;;;;;;19.33;10.05;;;;;;;20.87;100.00;100916.97;4947366;28;20072;-77
2023/06/18 06:55:29;;;;;;;19.48;10.43;;;;;;;20.97;100.00;100924.13;4947438;28;20450;-75
2023/06/18 06:57:56;;;;;;;20.55;10.57;;;;;;;20.95;100.00;100918.19;4955542;28;20212;-74
2023/06/18 07:00:23;;;;;;;18.75;10.13;;;;;;;21.06;100.00;100918.38;4956222;28;20071;-74
2023/06/18 07:02:50;;;;;;;18.25;9.77;;;;;;;21.18;100.00;100925.03;4949120;28;20055;-76
2023/06/18 07:05:16;;;;;;;22.52;10.23;;;;;;;21.33;100.00;100926.59;4948928;29;20113;-74
2023/06/18 07:07:43;;;;;;;20.50;9.80;;;;;;;21.50;100.00;100924.09;4947884;29;20074;-73
2023/06/18 07:10:10;;;;;;;18.95;10.27;;;;;;;21.65;100.00;100922.84;4946873;29;20059;-74
2023/06/18 07:12:37;;;;;;;18.55;9.75;;;;;;;21.75;100.00;100923.50;4941159;28;20039;-75
2023/06/18 07:15:04;;;;;;;17.83;9.68;;;;;;;21.89;100.00;100920.66;4948818;28;20054;-71
2023/06/18 07:17:31;;;;;;;17.13;9.50;;;;;;;22.01;100.00;100927.28;4949095;28;20138;-70
2023/06/18 07:19:58;;;;;;;17.42;9.40;;;;;;;22.13;100.00;100931.06;4948764;28;20055;-73
2023/06/18 07:22:27;;;;;;;16.67;9.48;;;;;;;22.28;100.00;100923.28;4949764;28;20051;-76
2023/06/18 07:24:56;;;;;;;17.55;9.48;;;;;;;22.42;100.00;100916.81;4948063;28;20053;-76
2023/06/18 07:27:24;;;;;;;17.98;9.88;;;;;;;22.58;100.00;100921.94;4945975;28;20059;-75
2023/06/18 07:29:51;;;;;;;17.83;9.77;;;;;;;22.74;100.00;100924.19;4945312;28;20079;-75
2023/06/18 07:32:17;;;;;;;16.15;8.85;;;;;;;22.87;100.00;100921.75;4945288;28;20062;-74
2023/06/18 07:34:44;;;;;;;15.75;8.85;;;;;;;22.99;100.00;100923.50;4948655;28;20086;-73
2023/06/18 07:37:10;;;;;;;16.45;8.50;;;;;;;23.11;100.00;100923.09;4949401;28;20138;-69
2023/06/18 07:39:37;;;;;;;20.35;9.07;;;;;;;23.22;100.00;100926.06;4947866;28;20086;-69
2023/06/18 07:42:04;;;;;;;16.40;9.15;;;;;;;23.32;100.00;100924.59;4949130;28;20145;-68
2023/06/18 07:44:30;;;;;;;18.40;8.23;;;;;;;23.43;100.00;100918.28;4951807;28;20086;-71
2023/06/18 07:46:57;;;;;;;25.00;9.02;;;;;;;23.55;100.00;100920.69;4946130;28;20567;-71
2023/06/18 07:49:24;;;;;;;17.13;8.90;;;;;;;23.62;100.00;100911.75;4949445;28;20473;-70
2023/06/18 07:51:51;;;;;;;17.20;8.95;;;;;;;23.69;100.00;100910.53;4949105;28;20047;-72
2023/06/18 07:54:17;;;;;;;17.05;8.75;;;;;;;23.75;100.00;100912.13;4948616;28;20055;-70
2023/06/18 07:56:44;;;;;;;19.40;8.63;;;;;;;23.86;100.00;100908.63;4944159;28;20079;-70
2023/06/18 07:59:10;;;;;;;14.43;8.25;;;;;;;23.94;100.00;100895.50;4946586;28;20054;-70
2023/06/18 08:01:37;;;;;;;14.77;8.43;;;;;;;24.05;100.00;100899.19;4949170;28;20047;-70
2023/06/18 08:04:04;;;;;;;15.23;8.00;;;;;;;24.18;100.00;100898.75;4949777;28;20043;-71
2023/06/18 08:06:31;;;;;;;15.45;8.07;;;;;;;24.29;100.00;100901.69;4950848;28;20061;-70
2023/06/18 08:08:57;;;;;;;16.75;8.35;;;;;;;24.45;100.00;100903.84;4952769;28;20047;-71
2023/06/18 08:11:24;;;;;;;16.00;8.05;;;;;;;24.57;100.00;100896.13;4952881;28;20132;-71
2023/06/18 08:13:50;;;;;;;17.23;8.60;;;;;;;24.71;98.39;100898.00;4980852;28;20086;-70
2023/06/18 08:16:17;;;;;;;15.32;7.97;;;;;;;24.86;97.76;100895.75;4948515;29;20625;-74
2023/06/18 08:18:44;;;;;;;16.20;7.72;;;;;;;25.00;96.55;100900.47;4951253;28;20052;-70
2023/06/18 08:21:11;;;;;;;17.42;8.50;;;;;;;25.13;95.81;100900.72;4950831;28;20050;-69
2023/06/18 08:23:38;;;;;;;16.95;8.00;;;;;;;25.28;92.18;100899.19;4952655;28;20043;-70
2023/06/18 08:26:04;;;;;;;16.45;7.90;;;;;;;25.30;90.32;100896.63;4950825;28;20055;-72
2023/06/18 08:28:31;;;;;;;15.02;7.75;;;;;;;25.46;90.22;100903.66;4945492;28;21528;-69
2023/06/18 08:30:57;;;;;;;15.10;7.35;;;;;;;25.52;87.84;100904.44;4947580;29;20106;-70
2023/06/18 08:33:24;;;;;;;14.98;7.50;;;;;;;25.69;85.86;100899.53;4949512;28;20075;-68
2023/06/18 08:35:50;;;;;;;12.88;7.18;;;;;;;25.57;75.63;100898.75;4949884;28;20548;-68
2023/06/18 08:38:17;;;;;;;12.82;7.10;;;;;;;25.56;71.06;100888.66;4952571;28;20051;-68
2023/06/18 08:40:51;;;;;;;13.45;6.97;;;;;;;25.59;68.92;100890.47;4949105;28;20054;-71
2023/06/18 08:43:22;;;;;;;14.10;7.45;;;;;;;25.75;74.55;100891.75;4949612;29;20054;-69
2023/06/18 08:45:53;;;;;;;10.98;6.30;;;;;;;25.80;64.03;100894.59;4950119;28;20426;-68
2023/06/18 08:48:27;;;;;;;13.05;6.60;;;;;;;25.83;62.55;100892.78;4943368;28;20601;-70
2023/06/18 08:51:04;;;;;;;12.77;6.70;;;;;;;26.04;65.87;100886.31;4951799;28;20051;-71
2023/06/18 08:53:40;;;;;;;12.90;6.22;;;;;;;25.94;61.02;100887.06;4948419;28;20055;-68
2023/06/18 08:56:08;;;;;;;12.25;6.53;;;;;;;26.10;60.98;100889.16;4941937;29;20048;-68
2023/06/18 08:58:40;;;;;;;13.95;6.82;;;;;;;26.35;61.07;100874.56;4958618;28;21004;-70
2023/06/18 09:01:07;;;;;;;12.10;6.60;;;;;;;26.54;59.53;100875.53;4943268;28;20142;-71
2023/06/18 09:03:37;;;;;;;15.50;6.78;;;;;;;26.54;58.36;100875.53;4943297;28;20047;-71
2023/06/18 09:06:05;;;;;;;12.40;6.93;;;;;;;26.43;52.69;100881.25;4947046;28;20062;-69
2023/06/18 09:08:32;;;;;;;14.18;6.32;;;;;;;26.50;54.15;100877.88;4947867;28;20537;-71
2023/06/18 09:11:00;;;;;;;11.10;6.22;;;;;;;26.62;52.59;100875.78;4942389;29;20181;-69
2023/06/18 09:13:26;;;;;;;11.32;6.32;;;;;;;26.73;47.60;100882.19;4943341;29;20103;-69
2023/06/18 09:15:53;;;;;;;12.77;6.55;;;;;;;26.92;45.41;100875.88;4943380;28;20781;-69
2023/06/18 09:18:21;;;;;;;13.75;6.90;;;;;;;27.13;49.37;100874.97;4940088;28;20561;-67
2023/06/18 09:20:48;;;;;;;13.93;7.03;;;;;;;27.33;50.21;100868.13;4929033;29;20047;-69
2023/06/18 09:23:15;;;;;;;13.10;7.13;;;;;;;27.53;49.09;100874.19;4945200;28;20146;-73
2023/06/18 09:25:48;;;;;;;13.15;6.75;;;;;;;27.72;48.30;100871.44;4940282;28;20165;-70
2023/06/18 09:28:15;;;;;;;10.93;6.63;;;;;;;27.77;46.99;100873.50;4946383;29;20052;-71
2023/06/18 09:30:50;;;;;;;12.75;6.32;;;;;;;27.87;46.05;100877.56;4948114;28;20521;-69
2023/06/18 09:33:25;;;;;;;;;;;;;;;28.03;44.84;100877.38;4948541;28;20549;-71
2023/06/18 09:36:08;;;;;;;11.77;6.13;;;;;;;28.15;43.83;100870.22;4948231;29;20373;-69
2023/06/18 09:38:41;;;;;;;13.38;6.47;;;;;;;28.16;44.36;100877.50;4950875;28;20051;-72
2023/06/18 09:41:18;;;;;;;11.55;6.20;;;;;;;28.20;43.39;100880.81;4950309;28;20082;-71
2023/06/18 09:43:48;;;;;;;13.93;6.00;;;;;;;28.03;41.94;100877.38;4951887;28;20047;-73
2023/06/18 09:46:15;;;;;;;12.82;6.13;;;;;;;28.24;44.30;100877.66;4954244;28;20047;-71
2023/06/18 09:48:45;;;;;;;13.23;6.93;;;;;;;28.33;43.99;100868.75;4949938;28;20437;-73
2023/06/18 09:51:15;;;;;;;13.77;6.80;;;;;;;28.13;40.94;100870.00;4947167;28;20111;-73
2023/06/18 09:53:42;;;;;;;13.18;6.25;;;;;;;28.26;42.65;100877.94;4949893;29;20051;-69
2023/06/18 09:56:11;;;;;;;12.43;6.90;;;;;;;28.43;44.02;100878.50;4943699;29;20201;-70
2023/06/18 09:58:40;;;;;;;13.85;6.72;;;;;;;28.47;40.16;100873.25;4943059;28;20118;-71
2023/06/18 10:01:07;;;;;;;12.68;5.75;;;;;;;28.63;42.80;100864.47;4948705;28;20047;-70
2023/06/18 10:03:35;;;;;;;14.88;6.10;;;;;;;28.64;38.00;100862.38;4950500;28;20094;-73
2023/06/18 10:06:11;;;;;;;10.55;5.82;;;;;;;28.84;37.56;100861.88;4950803;28;20125;-69
2023/06/18 10:08:41;;;;;;;12.60;5.90;;;;;;;28.91;37.52;100855.53;4947087;28;20051;-70
2023/06/18 10:11:09;;;;;;;13.25;6.18;;;;;;;29.01;36.59;100848.09;4951102;28;20055;-70
2023/06/18 10:13:52;;;;;;;12.10;6.35;;;;;;;29.07;37.60;100848.78;4950577;28;20078;-71
2023/06/18 10:16:20;;;;;;;11.55;6.45;;;;;;;29.16;38.75;100850.47;4937371;28;20089;-72
2023/06/18 10:19:03;;;;;;;12.98;5.40;;;;;;;28.73;35.08;100844.84;4941341;29;20057;-69
2023/06/18 10:21:34;;;;;;;11.35;5.78;;;;;;;29.07;36.80;100850.88;4948586;28;20059;-70
2023/06/18 10:24:12;;;;;;;11.25;6.05;;;;;;;29.28;36.50;100843.25;4949396;28;20178;-69
2023/06/18 10:26:39;;;;;;;12.63;5.95;;;;;;;29.55;36.01;100830.56;4948611;28;20098;-72
2023/06/18 10:29:06;;;;;;;14.75;6.78;;;;;;;29.73;37.08;100827.63;4944995;28;20150;-70
2023/06/18 10:31:33;;;;;;;11.90;7.15;;;;;;;29.76;35.74;100826.53;4947812;28;20047;-70
2023/06/18 10:34:00;;;;;;;13.05;6.10;;;;;;;29.70;35.02;100823.00;4945606;28;20340;-70
2023/06/18 10:36:28;;;;;;;12.57;6.57;;;;;;;29.63;35.99;100826.53;4949030;28;20059;-71
2023/06/18 10:38:56;;;;;;;12.20;5.53;;;;;;;29.43;34.70;100821.44;4944619;28;20123;-71
2023/06/18 10:41:23;;;;;;;13.45;5.85;;;;;;;29.11;35.70;100828.44;4946833;29;20499;-71
2023/06/18 10:43:51;;;;;;;12.10;5.97;;;;;;;29.19;36.59;100824.38;4949429;28;20133;-71
2023/06/18 10:46:19;;;;;;;11.20;6.53;;;;;;;29.34;36.72;100821.06;4947097;28;20109;-70
2023/06/18 10:49:11;;;;;;;14.23;6.65;;;;;;;29.56;35.84;100820.69;4948840;28;20383;-71
2023/06/18 10:51:37;;;;;;;11.70;6.68;;;;;;;29.73;36.57;100821.16;4947381;28;20134;-70
2023/06/18 10:54:29;;;;;;;11.57;5.80;;;;;;;29.66;35.38;100808.25;4941308;28;20109;-71
2023/06/18 10:56:58;;;;;;;10.77;6.30;;;;;;;29.84;36.70;100812.38;4975380;28;20047;-70
2023/06/18 10:59:45;;;;;;;15.27;6.40;;;;;;;30.07;35.61;100805.66;4948443;28;20051;-71
2023/06/18 11:02:13;;;;;;;13.70;6.05;;;;;;;29.87;33.91;100800.56;4942087;28;20130;-71
2023/06/18 11:04:48;;;;;;;12.48;6.75;;;;;;;30.01;35.65;100807.09;4943177;28;20094;-70
2023/06/18 11:07:23;;;;;;;10.07;5.97;;;;;;;29.97;34.47;100803.78;4949629;28;20469;-73
2023/06/18 11:09:51;;;;;;;10.88;6.32;;;;;;;30.12;35.30;100801.91;4944093;28;20165;-70
2023/06/18 11:12:27;;;;;;;13.73;6.35;;;;;;;30.29;35.65;100807.28;4949462;28;20142;-70